sensor_id;sensor_type;location;lat;lon;timestamp;P1;durP1;ratioP1;P2;durP2;ratioP2
21890;SDS011;11110;52.386;16.940;2022-08-03T00:00:37;13.13;;;5.50;;
21890;SDS011;11110;52.386;16.940;2022-08-03T00:03:05;13.63;;;6.00;;
21890;SDS011;11110;52.386;16.940;2022-08-03T00:05:35;22.42;;;7.00;;
21890;SDS011;11110;52.386;16.940;2022-08-03T00:08:03;13.77;;;5.75;;
21890;SDS011;11110;52.386;16.940;2022-08-03T00:10:33;15.05;;;5.53;;
21890;SDS011;11110;52.386;16.940;2022-08-03T00:13:02;17.85;;;6.05;;
21890;SDS011;11110;52.386;16.940;2022-08-03T00:15:31;14.52;;;5.80;;
21890;SDS011;11110;52.386;16.940;2022-08-03T00:17:59;13.50;;;5.30;;
21890;SDS011;11110;52.386;16.940;2022-08-03T00:20:27;16.30;;;5.82;;
21890;SDS011;11110;52.386;16.940;2022-08-03T00:22:56;16.50;;;6.25;;
21890;SDS011;11110;52.386;16.940;2022-08-03T00:25:25;15.68;;;5.85;;
21890;SDS011;11110;52.386;16.940;2022-08-03T00:27:55;13.40;;;5.22;;
21890;SDS011;11110;52.386;16.940;2022-08-03T00:30:24;17.38;;;5.97;;
21890;SDS011;11110;52.386;16.940;2022-08-03T00:32:56;13.48;;;5.20;;
21890;SDS011;11110;52.386;16.940;2022-08-03T00:35:26;13.95;;;5.28;;
21890;SDS011;11110;52.386;16.940;2022-08-03T00:38:14;13.23;;;5.68;;
21890;SDS011;11110;52.386;16.940;2022-08-03T00:40:43;19.67;;;6.47;;
21890;SDS011;11110;52.386;16.940;2022-08-03T00:43:12;13.73;;;5.43;;
21890;SDS011;11110;52.386;16.940;2022-08-03T00:45:41;16.70;;;6.35;;
21890;SDS011;11110;52.386;16.940;2022-08-03T00:48:11;13.70;;;5.88;;
21890;SDS011;11110;52.386;16.940;2022-08-03T00:50:55;16.77;;;5.78;;
21890;SDS011;11110;52.386;16.940;2022-08-03T00:53:24;14.25;;;5.47;;
21890;SDS011;11110;52.386;16.940;2022-08-03T00:55:54;17.20;;;5.80;;
21890;SDS011;11110;52.386;16.940;2022-08-03T00:58:24;14.95;;;5.78;;
21890;SDS011;11110;52.386;16.940;2022-08-03T01:00:53;12.73;;;5.35;;
21890;SDS011;11110;52.386;16.940;2022-08-03T01:03:21;12.27;;;5.32;;
21890;SDS011;11110;52.386;16.940;2022-08-03T01:05:51;13.18;;;5.85;;
21890;SDS011;11110;52.386;16.940;2022-08-03T01:08:34;13.80;;;5.57;;
21890;SDS011;11110;52.386;16.940;2022-08-03T01:11:11;17.23;;;6.28;;
21890;SDS011;11110;52.386;16.940;2022-08-03T01:13:50;15.25;;;5.70;;
21890;SDS011;11110;52.386;16.940;2022-08-03T01:16:47;14.90;;;6.20;;
21890;SDS011;11110;52.386;16.940;2022-08-03T01:19:30;14.98;;;5.88;;
21890;SDS011;11110;52.386;16.940;2022-08-03T01:22:17;14.35;;;5.57;;
21890;SDS011;11110;52.386;16.940;2022-08-03T01:25:02;15.80;;;5.90;;
21890;SDS011;11110;52.386;16.940;2022-08-03T01:27:40;15.50;;;5.35;;
21890;SDS011;11110;52.386;16.940;2022-08-03T01:30:20;18.52;;;6.15;;
21890;SDS011;11110;52.386;16.940;2022-08-03T01:32:54;16.77;;;6.00;;
21890;SDS011;11110;52.386;16.940;2022-08-03T01:35:31;16.25;;;6.07;;
21890;SDS011;11110;52.386;16.940;2022-08-03T01:38:06;14.85;;;5.55;;
21890;SDS011;11110;52.386;16.940;2022-08-03T01:40:38;16.35;;;6.13;;
21890;SDS011;11110;52.386;16.940;2022-08-03T01:43:08;15.10;;;5.50;;
21890;SDS011;11110;52.386;16.940;2022-08-03T01:46:01;17.38;;;6.00;;
21890;SDS011;11110;52.386;16.940;2022-08-03T01:48:31;14.20;;;5.57;;
21890;SDS011;11110;52.386;16.940;2022-08-03T01:51:00;13.85;;;5.55;;
21890;SDS011;11110;52.386;16.940;2022-08-03T01:53:30;14.82;;;5.97;;
21890;SDS011;11110;52.386;16.940;2022-08-03T01:56:01;16.00;;;5.53;;
21890;SDS011;11110;52.386;16.940;2022-08-03T01:58:33;16.38;;;5.72;;
21890;SDS011;11110;52.386;16.940;2022-08-03T02:01:04;14.35;;;5.95;;
21890;SDS011;11110;52.386;16.940;2022-08-03T02:03:35;14.82;;;5.18;;
21890;SDS011;11110;52.386;16.940;2022-08-03T02:06:27;13.93;;;5.80;;
21890;SDS011;11110;52.386;16.940;2022-08-03T02:09:18;12.63;;;5.65;;
21890;SDS011;11110;52.386;16.940;2022-08-03T02:11:48;13.80;;;5.30;;
21890;SDS011;11110;52.386;16.940;2022-08-03T02:14:18;14.57;;;5.50;;
21890;SDS011;11110;52.386;16.940;2022-08-03T02:16:50;13.98;;;6.35;;
21890;SDS011;11110;52.386;16.940;2022-08-03T02:19:19;13.68;;;5.97;;
21890;SDS011;11110;52.386;16.940;2022-08-03T02:21:48;16.42;;;5.97;;
21890;SDS011;11110;52.386;16.940;2022-08-03T02:24:23;13.25;;;5.57;;
21890;SDS011;11110;52.386;16.940;2022-08-03T02:26:52;13.57;;;5.78;;
21890;SDS011;11110;52.386;16.940;2022-08-03T02:29:23;12.82;;;5.75;;
21890;SDS011;11110;52.386;16.940;2022-08-03T02:32:10;13.23;;;5.97;;
21890;SDS011;11110;52.386;16.940;2022-08-03T02:34:44;18.25;;;6.43;;
21890;SDS011;11110;52.386;16.940;2022-08-03T02:37:16;14.23;;;5.57;;
21890;SDS011;11110;52.386;16.940;2022-08-03T02:39:46;12.98;;;5.47;;
21890;SDS011;11110;52.386;16.940;2022-08-03T02:42:18;16.35;;;6.38;;
21890;SDS011;11110;52.386;16.940;2022-08-03T02:44:49;12.20;;;5.55;;
21890;SDS011;11110;52.386;16.940;2022-08-03T02:47:23;13.05;;;5.70;;
21890;SDS011;11110;52.386;16.940;2022-08-03T02:50:15;13.65;;;5.75;;
21890;SDS011;11110;52.386;16.940;2022-08-03T02:52:45;15.02;;;5.75;;
21890;SDS011;11110;52.386;16.940;2022-08-03T02:55:15;13.70;;;5.82;;
21890;SDS011;11110;52.386;16.940;2022-08-03T02:57:46;12.80;;;5.63;;
21890;SDS011;11110;52.386;16.940;2022-08-03T03:00:16;14.13;;;6.85;;
21890;SDS011;11110;52.386;16.940;2022-08-03T03:02:56;15.07;;;6.82;;
21890;SDS011;11110;52.386;16.940;2022-08-03T03:05:26;17.67;;;7.43;;
21890;SDS011;11110;52.386;16.940;2022-08-03T03:08:17;14.82;;;6.45;;
21890;SDS011;11110;52.386;16.940;2022-08-03T03:10:52;15.95;;;6.70;;
21890;SDS011;11110;52.386;16.940;2022-08-03T03:13:22;15.40;;;7.15;;
21890;SDS011;11110;52.386;16.940;2022-08-03T03:15:52;14.15;;;6.80;;
21890;SDS011;11110;52.386;16.940;2022-08-03T03:18:22;18.17;;;8.82;;
21890;SDS011;11110;52.386;16.940;2022-08-03T03:20:54;17.63;;;8.68;;
21890;SDS011;11110;52.386;16.940;2022-08-03T03:23:24;19.88;;;11.27;;
21890;SDS011;11110;52.386;16.940;2022-08-03T03:25:54;16.83;;;9.45;;
21890;SDS011;11110;52.386;16.940;2022-08-03T03:28:24;19.92;;;8.98;;
21890;SDS011;11110;52.386;16.940;2022-08-03T03:30:53;16.17;;;8.40;;
21890;SDS011;11110;52.386;16.940;2022-08-03T03:33:23;20.13;;;9.82;;
21890;SDS011;11110;52.386;16.940;2022-08-03T03:35:54;16.40;;;8.40;;
21890;SDS011;11110;52.386;16.940;2022-08-03T03:38:24;18.55;;;7.75;;
21890;SDS011;11110;52.386;16.940;2022-08-03T03:40:53;19.75;;;9.20;;
21890;SDS011;11110;52.386;16.940;2022-08-03T03:43:22;15.85;;;7.18;;
21890;SDS011;11110;52.386;16.940;2022-08-03T03:45:51;19.80;;;9.65;;
21890;SDS011;11110;52.386;16.940;2022-08-03T03:48:21;16.58;;;6.85;;
21890;SDS011;11110;52.386;16.940;2022-08-03T03:50:52;13.95;;;6.85;;
21890;SDS011;11110;52.386;16.940;2022-08-03T03:53:23;18.23;;;9.32;;
21890;SDS011;11110;52.386;16.940;2022-08-03T03:55:52;16.75;;;9.93;;
21890;SDS011;11110;52.386;16.940;2022-08-03T03:58:28;18.58;;;10.98;;
21890;SDS011;11110;52.386;16.940;2022-08-03T04:00:57;17.77;;;8.13;;
21890;SDS011;11110;52.386;16.940;2022-08-03T04:03:27;22.10;;;12.32;;
21890;SDS011;11110;52.386;16.940;2022-08-03T04:05:57;19.80;;;10.15;;
21890;SDS011;11110;52.386;16.940;2022-08-03T04:08:42;17.02;;;8.35;;
21890;SDS011;11110;52.386;16.940;2022-08-03T04:11:30;16.98;;;7.75;;
21890;SDS011;11110;52.386;16.940;2022-08-03T04:14:05;17.25;;;8.23;;
21890;SDS011;11110;52.386;16.940;2022-08-03T04:16:37;14.90;;;6.53;;
21890;SDS011;11110;52.386;16.940;2022-08-03T04:19:10;18.15;;;8.48;;
21890;SDS011;11110;52.386;16.940;2022-08-03T04:21:51;18.38;;;8.02;;
21890;SDS011;11110;52.386;16.940;2022-08-03T04:24:23;20.88;;;8.73;;
21890;SDS011;11110;52.386;16.940;2022-08-03T04:26:54;18.10;;;8.55;;
21890;SDS011;11110;52.386;16.940;2022-08-03T04:29:24;16.20;;;8.35;;
21890;SDS011;11110;52.386;16.940;2022-08-03T04:31:54;17.55;;;8.80;;
21890;SDS011;11110;52.386;16.940;2022-08-03T04:34:25;16.52;;;7.65;;
21890;SDS011;11110;52.386;16.940;2022-08-03T04:36:57;13.90;;;6.80;;
21890;SDS011;11110;52.386;16.940;2022-08-03T04:39:27;13.30;;;6.90;;
21890;SDS011;11110;52.386;16.940;2022-08-03T04:41:58;14.70;;;6.80;;
21890;SDS011;11110;52.386;16.940;2022-08-03T04:44:49;11.68;;;6.50;;
21890;SDS011;11110;52.386;16.940;2022-08-03T04:47:26;13.73;;;6.63;;
21890;SDS011;11110;52.386;16.940;2022-08-03T04:49:54;10.63;;;5.57;;
21890;SDS011;11110;52.386;16.940;2022-08-03T04:52:24;16.65;;;7.28;;
21890;SDS011;11110;52.386;16.940;2022-08-03T04:54:52;14.75;;;7.00;;
21890;SDS011;11110;52.386;16.940;2022-08-03T04:57:21;13.02;;;6.45;;
21890;SDS011;11110;52.386;16.940;2022-08-03T04:59:49;16.50;;;7.18;;
21890;SDS011;11110;52.386;16.940;2022-08-03T05:02:28;15.43;;;7.43;;
21890;SDS011;11110;52.386;16.940;2022-08-03T05:04:57;15.50;;;6.90;;
21890;SDS011;11110;52.386;16.940;2022-08-03T05:07:27;13.90;;;6.50;;
21890;SDS011;11110;52.386;16.940;2022-08-03T05:10:03;16.95;;;6.22;;
21890;SDS011;11110;52.386;16.940;2022-08-03T05:12:43;20.10;;;7.65;;
21890;SDS011;11110;52.386;16.940;2022-08-03T05:15:12;20.45;;;7.60;;
21890;SDS011;11110;52.386;16.940;2022-08-03T05:17:41;14.75;;;6.28;;
21890;SDS011;11110;52.386;16.940;2022-08-03T05:20:09;15.60;;;6.82;;
21890;SDS011;11110;52.386;16.940;2022-08-03T05:22:40;16.25;;;6.60;;
21890;SDS011;11110;52.386;16.940;2022-08-03T05:25:08;16.67;;;7.65;;
21890;SDS011;11110;52.386;16.940;2022-08-03T05:27:46;16.13;;;7.25;;
21890;SDS011;11110;52.386;16.940;2022-08-03T05:30:14;16.88;;;6.72;;
21890;SDS011;11110;52.386;16.940;2022-08-03T05:32:59;16.45;;;7.20;;
21890;SDS011;11110;52.386;16.940;2022-08-03T05:35:28;17.92;;;7.55;;
21890;SDS011;11110;52.386;16.940;2022-08-03T05:38:18;14.45;;;6.75;;
21890;SDS011;11110;52.386;16.940;2022-08-03T05:41:00;16.20;;;7.35;;
21890;SDS011;11110;52.386;16.940;2022-08-03T05:43:49;17.75;;;8.23;;
21890;SDS011;11110;52.386;16.940;2022-08-03T05:46:17;16.80;;;7.35;;
21890;SDS011;11110;52.386;16.940;2022-08-03T05:48:46;16.67;;;7.20;;
21890;SDS011;11110;52.386;16.940;2022-08-03T05:51:15;14.35;;;6.43;;
21890;SDS011;11110;52.386;16.940;2022-08-03T05:53:45;15.45;;;7.10;;
21890;SDS011;11110;52.386;16.940;2022-08-03T05:56:14;20.65;;;8.02;;
21890;SDS011;11110;52.386;16.940;2022-08-03T05:58:43;15.88;;;6.80;;
21890;SDS011;11110;52.386;16.940;2022-08-03T06:01:13;12.93;;;6.45;;
21890;SDS011;11110;52.386;16.940;2022-08-03T06:03:42;17.98;;;7.53;;
21890;SDS011;11110;52.386;16.940;2022-08-03T06:06:10;17.17;;;6.82;;
21890;SDS011;11110;52.386;16.940;2022-08-03T06:08:39;16.80;;;7.68;;
21890;SDS011;11110;52.386;16.940;2022-08-03T06:11:09;15.95;;;6.05;;
21890;SDS011;11110;52.386;16.940;2022-08-03T06:13:37;18.48;;;7.55;;
21890;SDS011;11110;52.386;16.940;2022-08-03T06:16:06;19.85;;;6.85;;
21890;SDS011;11110;52.386;16.940;2022-08-03T06:18:35;18.13;;;7.13;;
21890;SDS011;11110;52.386;16.940;2022-08-03T06:21:04;19.50;;;7.15;;
21890;SDS011;11110;52.386;16.940;2022-08-03T06:23:42;17.95;;;6.90;;
21890;SDS011;11110;52.386;16.940;2022-08-03T06:26:26;21.25;;;7.85;;
21890;SDS011;11110;52.386;16.940;2022-08-03T06:28:54;20.80;;;7.55;;
21890;SDS011;11110;52.386;16.940;2022-08-03T06:31:23;18.80;;;7.15;;
21890;SDS011;11110;52.386;16.940;2022-08-03T06:34:02;13.30;;;6.00;;
21890;SDS011;11110;52.386;16.940;2022-08-03T06:36:51;15.52;;;6.45;;
21890;SDS011;11110;52.386;16.940;2022-08-03T06:39:27;17.38;;;5.80;;
21890;SDS011;11110;52.386;16.940;2022-08-03T06:41:57;23.90;;;7.25;;
21890;SDS011;11110;52.386;16.940;2022-08-03T06:44:25;11.82;;;5.47;;
21890;SDS011;11110;52.386;16.940;2022-08-03T06:46:53;15.18;;;5.88;;
21890;SDS011;11110;52.386;16.940;2022-08-03T06:49:22;12.65;;;5.85;;
21890;SDS011;11110;52.386;16.940;2022-08-03T06:51:51;15.70;;;5.53;;
21890;SDS011;11110;52.386;16.940;2022-08-03T06:54:32;16.80;;;6.03;;
21890;SDS011;11110;52.386;16.940;2022-08-03T06:57:03;15.45;;;5.55;;
21890;SDS011;11110;52.386;16.940;2022-08-03T06:59:33;15.90;;;5.28;;
21890;SDS011;11110;52.386;16.940;2022-08-03T07:02:22;11.18;;;5.03;;
21890;SDS011;11110;52.386;16.940;2022-08-03T07:04:54;16.13;;;5.57;;
21890;SDS011;11110;52.386;16.940;2022-08-03T07:07:23;14.32;;;5.07;;
21890;SDS011;11110;52.386;16.940;2022-08-03T07:09:51;14.40;;;5.60;;
21890;SDS011;11110;52.386;16.940;2022-08-03T07:12:25;14.27;;;5.45;;
21890;SDS011;11110;52.386;16.940;2022-08-03T07:14:55;15.90;;;5.35;;
21890;SDS011;11110;52.386;16.940;2022-08-03T07:17:28;15.88;;;5.45;;
21890;SDS011;11110;52.386;16.940;2022-08-03T07:19:57;16.52;;;5.00;;
21890;SDS011;11110;52.386;16.940;2022-08-03T07:22:25;12.07;;;5.07;;
21890;SDS011;11110;52.386;16.940;2022-08-03T07:24:54;14.15;;;5.78;;
21890;SDS011;11110;52.386;16.940;2022-08-03T07:27:23;12.55;;;5.22;;
21890;SDS011;11110;52.386;16.940;2022-08-03T07:29:55;14.07;;;5.10;;
21890;SDS011;11110;52.386;16.940;2022-08-03T07:32:25;10.63;;;4.45;;
21890;SDS011;11110;52.386;16.940;2022-08-03T07:34:54;14.63;;;5.72;;
21890;SDS011;11110;52.386;16.940;2022-08-03T07:37:27;15.60;;;5.78;;
21890;SDS011;11110;52.386;16.940;2022-08-03T07:39:55;13.57;;;5.13;;
21890;SDS011;11110;52.386;16.940;2022-08-03T07:42:24;14.13;;;5.15;;
21890;SDS011;11110;52.386;16.940;2022-08-03T07:44:53;14.75;;;5.07;;
21890;SDS011;11110;52.386;16.940;2022-08-03T07:47:24;14.18;;;5.00;;
21890;SDS011;11110;52.386;16.940;2022-08-03T07:50:03;13.05;;;5.38;;
21890;SDS011;11110;52.386;16.940;2022-08-03T07:52:34;18.10;;;5.75;;
21890;SDS011;11110;52.386;16.940;2022-08-03T07:55:16;10.88;;;4.97;;
21890;SDS011;11110;52.386;16.940;2022-08-03T07:57:46;17.35;;;5.97;;
21890;SDS011;11110;52.386;16.940;2022-08-03T08:00:16;12.20;;;5.15;;
21890;SDS011;11110;52.386;16.940;2022-08-03T08:02:46;12.27;;;5.35;;
21890;SDS011;11110;52.386;16.940;2022-08-03T08:05:14;18.95;;;6.13;;
21890;SDS011;11110;52.386;16.940;2022-08-03T08:07:43;11.13;;;5.28;;
21890;SDS011;11110;52.386;16.940;2022-08-03T08:10:17;14.68;;;5.13;;
21890;SDS011;11110;52.386;16.940;2022-08-03T08:12:46;12.70;;;5.32;;
21890;SDS011;11110;52.386;16.940;2022-08-03T08:15:16;16.65;;;6.03;;
21890;SDS011;11110;52.386;16.940;2022-08-03T08:17:45;17.35;;;6.35;;
21890;SDS011;11110;52.386;16.940;2022-08-03T08:20:16;13.65;;;6.00;;
21890;SDS011;11110;52.386;16.940;2022-08-03T08:22:54;12.73;;;5.88;;
21890;SDS011;11110;52.386;16.940;2022-08-03T08:25:27;11.15;;;5.47;;
21890;SDS011;11110;52.386;16.940;2022-08-03T08:27:56;13.40;;;5.93;;
21890;SDS011;11110;52.386;16.940;2022-08-03T08:30:48;13.70;;;5.38;;
21890;SDS011;11110;52.386;16.940;2022-08-03T08:33:29;12.20;;;5.57;;
21890;SDS011;11110;52.386;16.940;2022-08-03T08:36:17;10.50;;;5.22;;
21890;SDS011;11110;52.386;16.940;2022-08-03T08:38:46;14.00;;;6.20;;
21890;SDS011;11110;52.386;16.940;2022-08-03T08:41:14;12.45;;;5.18;;
21890;SDS011;11110;52.386;16.940;2022-08-03T08:43:43;13.48;;;5.63;;
21890;SDS011;11110;52.386;16.940;2022-08-03T08:46:13;12.63;;;5.55;;
21890;SDS011;11110;52.386;16.940;2022-08-03T08:48:50;14.43;;;6.07;;
21890;SDS011;11110;52.386;16.940;2022-08-03T08:51:20;12.07;;;5.10;;
21890;SDS011;11110;52.386;16.940;2022-08-03T08:54:09;16.25;;;5.60;;
21890;SDS011;11110;52.386;16.940;2022-08-03T08:56:39;10.65;;;5.10;;
21890;SDS011;11110;52.386;16.940;2022-08-03T08:59:07;12.35;;;5.35;;
21890;SDS011;11110;52.386;16.940;2022-08-03T09:01:37;14.40;;;5.30;;
21890;SDS011;11110;52.386;16.940;2022-08-03T09:04:06;11.30;;;5.05;;
21890;SDS011;11110;52.386;16.940;2022-08-03T09:06:34;15.13;;;5.80;;
21890;SDS011;11110;52.386;16.940;2022-08-03T09:09:04;13.75;;;5.47;;
21890;SDS011;11110;52.386;16.940;2022-08-03T09:11:34;11.30;;;4.93;;
21890;SDS011;11110;52.386;16.940;2022-08-03T09:14:22;11.70;;;5.07;;
21890;SDS011;11110;52.386;16.940;2022-08-03T09:17:06;12.20;;;4.95;;
21890;SDS011;11110;52.386;16.940;2022-08-03T09:19:43;12.15;;;4.85;;
21890;SDS011;11110;52.386;16.940;2022-08-03T09:22:30;12.55;;;5.50;;
21890;SDS011;11110;52.386;16.940;2022-08-03T09:25:00;12.65;;;5.53;;
21890;SDS011;11110;52.386;16.940;2022-08-03T09:27:50;13.35;;;5.55;;
21890;SDS011;11110;52.386;16.940;2022-08-03T09:30:19;10.23;;;4.40;;
21890;SDS011;11110;52.386;16.940;2022-08-03T09:33:02;9.98;;;4.50;;
21890;SDS011;11110;52.386;16.940;2022-08-03T09:35:32;12.77;;;4.78;;
21890;SDS011;11110;52.386;16.940;2022-08-03T09:38:23;9.30;;;4.30;;
21890;SDS011;11110;52.386;16.940;2022-08-03T09:40:53;13.48;;;5.25;;
21890;SDS011;11110;52.386;16.940;2022-08-03T09:43:26;12.55;;;4.82;;
21890;SDS011;11110;52.386;16.940;2022-08-03T09:46:01;9.52;;;4.07;;
21890;SDS011;11110;52.386;16.940;2022-08-03T09:48:31;11.27;;;4.63;;
21890;SDS011;11110;52.386;16.940;2022-08-03T09:51:02;8.45;;;4.25;;
21890;SDS011;11110;52.386;16.940;2022-08-03T09:53:51;11.93;;;4.75;;
21890;SDS011;11110;52.386;16.940;2022-08-03T09:56:36;8.48;;;4.13;;
21890;SDS011;11110;52.386;16.940;2022-08-03T09:59:09;9.60;;;4.05;;
21890;SDS011;11110;52.386;16.940;2022-08-03T10:01:38;6.78;;;3.33;;
21890;SDS011;11110;52.386;16.940;2022-08-03T10:04:11;10.55;;;4.10;;
21890;SDS011;11110;52.386;16.940;2022-08-03T10:06:42;12.00;;;4.40;;
21890;SDS011;11110;52.386;16.940;2022-08-03T10:09:11;10.50;;;4.35;;
21890;SDS011;11110;52.386;16.940;2022-08-03T10:11:41;7.85;;;3.58;;
21890;SDS011;11110;52.386;16.940;2022-08-03T10:14:12;11.98;;;5.47;;
21890;SDS011;11110;52.386;16.940;2022-08-03T10:16:45;9.25;;;4.10;;
21890;SDS011;11110;52.386;16.940;2022-08-03T10:19:17;11.25;;;4.65;;
21890;SDS011;11110;52.386;16.940;2022-08-03T10:21:47;7.85;;;4.30;;
21890;SDS011;11110;52.386;16.940;2022-08-03T10:24:19;11.57;;;5.07;;
21890;SDS011;11110;52.386;16.940;2022-08-03T10:26:51;8.13;;;3.70;;
21890;SDS011;11110;52.386;16.940;2022-08-03T10:29:24;10.00;;;4.53;;
21890;SDS011;11110;52.386;16.940;2022-08-03T10:31:55;6.72;;;3.72;;
21890;SDS011;11110;52.386;16.940;2022-08-03T10:34:28;12.20;;;4.55;;
21890;SDS011;11110;52.386;16.940;2022-08-03T10:37:10;7.55;;;3.85;;
21890;SDS011;11110;52.386;16.940;2022-08-03T10:39:40;8.73;;;4.00;;
21890;SDS011;11110;52.386;16.940;2022-08-03T10:42:20;6.97;;;3.53;;
21890;SDS011;11110;52.386;16.940;2022-08-03T10:44:54;9.27;;;3.97;;
21890;SDS011;11110;52.386;16.940;2022-08-03T10:47:30;6.07;;;3.30;;
21890;SDS011;11110;52.386;16.940;2022-08-03T10:50:01;9.23;;;3.60;;
21890;SDS011;11110;52.386;16.940;2022-08-03T10:52:30;8.00;;;3.80;;
21890;SDS011;11110;52.386;16.940;2022-08-03T10:58:46;10.20;;;4.10;;
21890;SDS011;11110;52.386;16.940;2022-08-03T11:04:26;7.05;;;3.75;;
21890;SDS011;11110;52.386;16.940;2022-08-03T11:09:49;12.35;;;5.00;;
21890;SDS011;11110;52.386;16.940;2022-08-03T11:12:22;10.27;;;4.38;;
21890;SDS011;11110;52.386;16.940;2022-08-03T11:14:58;9.93;;;4.55;;
21890;SDS011;11110;52.386;16.940;2022-08-03T11:17:28;8.48;;;3.60;;
21890;SDS011;11110;52.386;16.940;2022-08-03T11:19:57;6.45;;;3.38;;
21890;SDS011;11110;52.386;16.940;2022-08-03T11:22:46;4.93;;;3.22;;
21890;SDS011;11110;52.386;16.940;2022-08-03T11:25:15;10.18;;;4.32;;
21890;SDS011;11110;52.386;16.940;2022-08-03T11:30:54;7.97;;;3.53;;
21890;SDS011;11110;52.386;16.940;2022-08-03T11:33:28;10.25;;;4.07;;
21890;SDS011;11110;52.386;16.940;2022-08-03T11:35:58;8.73;;;3.85;;
21890;SDS011;11110;52.386;16.940;2022-08-03T11:38:29;9.40;;;4.10;;
21890;SDS011;11110;52.386;16.940;2022-08-03T11:40:57;5.72;;;2.78;;
21890;SDS011;11110;52.386;16.940;2022-08-03T11:43:44;8.15;;;3.35;;
21890;SDS011;11110;52.386;16.940;2022-08-03T11:46:13;7.35;;;3.42;;
21890;SDS011;11110;52.386;16.940;2022-08-03T11:49:01;7.13;;;3.30;;
21890;SDS011;11110;52.386;16.940;2022-08-03T11:51:36;7.53;;;3.40;;
21890;SDS011;11110;52.386;16.940;2022-08-03T11:54:07;9.88;;;3.90;;
21890;SDS011;11110;52.386;16.940;2022-08-03T11:56:43;11.48;;;4.38;;
21890;SDS011;11110;52.386;16.940;2022-08-03T11:59:12;7.55;;;3.70;;
21890;SDS011;11110;52.386;16.940;2022-08-03T12:01:47;6.28;;;3.35;;
21890;SDS011;11110;52.386;16.940;2022-08-03T12:04:15;7.32;;;3.58;;
21890;SDS011;11110;52.386;16.940;2022-08-03T12:06:56;4.82;;;3.03;;
21890;SDS011;11110;52.386;16.940;2022-08-03T12:09:30;4.90;;;3.28;;
21890;SDS011;11110;52.386;16.940;2022-08-03T12:12:02;6.45;;;3.25;;
21890;SDS011;11110;52.386;16.940;2022-08-03T12:14:31;6.80;;;3.97;;
21890;SDS011;11110;52.386;16.940;2022-08-03T12:17:18;7.80;;;3.88;;
21890;SDS011;11110;52.386;16.940;2022-08-03T12:19:47;9.73;;;3.78;;
21890;SDS011;11110;52.386;16.940;2022-08-03T12:22:15;7.07;;;2.95;;
21890;SDS011;11110;52.386;16.940;2022-08-03T12:25:00;6.55;;;3.25;;
21890;SDS011;11110;52.386;16.940;2022-08-03T12:27:28;4.80;;;3.00;;
21890;SDS011;11110;52.386;16.940;2022-08-03T12:29:57;5.05;;;3.15;;
21890;SDS011;11110;52.386;16.940;2022-08-03T12:32:27;6.10;;;3.38;;
21890;SDS011;11110;52.386;16.940;2022-08-03T12:34:56;6.22;;;3.05;;
21890;SDS011;11110;52.386;16.940;2022-08-03T12:37:27;5.57;;;3.42;;
21890;SDS011;11110;52.386;16.940;2022-08-03T12:39:57;5.80;;;3.28;;
21890;SDS011;11110;52.386;16.940;2022-08-03T12:42:37;6.68;;;3.88;;
21890;SDS011;11110;52.386;16.940;2022-08-03T12:45:17;6.05;;;3.45;;
21890;SDS011;11110;52.386;16.940;2022-08-03T12:47:48;6.05;;;3.67;;
21890;SDS011;11110;52.386;16.940;2022-08-03T12:50:25;7.85;;;3.75;;
21890;SDS011;11110;52.386;16.940;2022-08-03T12:52:54;5.18;;;3.70;;
21890;SDS011;11110;52.386;16.940;2022-08-03T12:55:23;5.57;;;3.67;;
21890;SDS011;11110;52.386;16.940;2022-08-03T12:58:29;7.70;;;3.78;;
21890;SDS011;11110;52.386;16.940;2022-08-03T13:01:00;4.78;;;3.33;;
21890;SDS011;11110;52.386;16.940;2022-08-03T13:03:38;5.53;;;3.08;;
21890;SDS011;11110;52.386;16.940;2022-08-03T13:06:12;3.10;;;2.80;;
21890;SDS011;11110;52.386;16.940;2022-08-03T13:08:42;6.85;;;3.28;;
21890;SDS011;11110;52.386;16.940;2022-08-03T13:11:18;5.25;;;3.40;;
21890;SDS011;11110;52.386;16.940;2022-08-03T13:14:12;6.63;;;3.47;;
21890;SDS011;11110;52.386;16.940;2022-08-03T13:16:46;3.78;;;3.17;;
21890;SDS011;11110;52.386;16.940;2022-08-03T13:19:15;3.38;;;2.53;;
21890;SDS011;11110;52.386;16.940;2022-08-03T13:21:43;4.13;;;2.75;;
21890;SDS011;11110;52.386;16.940;2022-08-03T13:24:30;6.45;;;2.92;;
21890;SDS011;11110;52.386;16.940;2022-08-03T13:27:00;6.80;;;2.95;;
21890;SDS011;11110;52.386;16.940;2022-08-03T13:29:52;3.03;;;2.53;;
21890;SDS011;11110;52.386;16.940;2022-08-03T13:32:21;3.47;;;2.75;;
21890;SDS011;11110;52.386;16.940;2022-08-03T13:34:49;3.30;;;2.60;;
21890;SDS011;11110;52.386;16.940;2022-08-03T13:37:18;2.55;;;2.10;;
21890;SDS011;11110;52.386;16.940;2022-08-03T13:39:47;4.88;;;3.00;;
21890;SDS011;11110;52.386;16.940;2022-08-03T13:42:27;4.68;;;2.90;;
21890;SDS011;11110;52.386;16.940;2022-08-03T13:44:58;4.95;;;3.05;;
21890;SDS011;11110;52.386;16.940;2022-08-03T13:47:27;4.80;;;3.13;;
21890;SDS011;11110;52.386;16.940;2022-08-03T13:49:55;4.78;;;3.08;;
21890;SDS011;11110;52.386;16.940;2022-08-03T13:52:28;5.13;;;2.60;;
21890;SDS011;11110;52.386;16.940;2022-08-03T13:54:58;4.55;;;3.35;;
21890;SDS011;11110;52.386;16.940;2022-08-03T13:57:26;3.33;;;2.95;;
21890;SDS011;11110;52.386;16.940;2022-08-03T14:00:16;3.80;;;3.40;;
21890;SDS011;11110;52.386;16.940;2022-08-03T14:02:53;3.78;;;3.10;;
21890;SDS011;11110;52.386;16.940;2022-08-03T14:05:38;5.28;;;3.53;;
21890;SDS011;11110;52.386;16.940;2022-08-03T14:08:07;4.18;;;3.47;;
21890;SDS011;11110;52.386;16.940;2022-08-03T14:10:36;3.60;;;3.20;;
21890;SDS011;11110;52.386;16.940;2022-08-03T14:13:06;4.38;;;3.45;;
21890;SDS011;11110;52.386;16.940;2022-08-03T14:15:35;4.60;;;3.42;;
21890;SDS011;11110;52.386;16.940;2022-08-03T14:18:05;6.60;;;3.25;;
21890;SDS011;11110;52.386;16.940;2022-08-03T14:20:53;3.30;;;2.88;;
21890;SDS011;11110;52.386;16.940;2022-08-03T14:23:26;4.57;;;3.72;;
21890;SDS011;11110;52.386;16.940;2022-08-03T14:25:55;3.78;;;3.38;;
21890;SDS011;11110;52.386;16.940;2022-08-03T14:28:23;3.97;;;3.20;;
21890;SDS011;11110;52.386;16.940;2022-08-03T14:30:53;3.97;;;3.53;;
21890;SDS011;11110;52.386;16.940;2022-08-03T14:33:22;3.10;;;2.80;;
21890;SDS011;11110;52.386;16.940;2022-08-03T14:35:51;5.00;;;3.50;;
21890;SDS011;11110;52.386;16.940;2022-08-03T14:38:20;3.45;;;3.13;;
21890;SDS011;11110;52.386;16.940;2022-08-03T14:40:49;3.03;;;2.75;;
21890;SDS011;11110;52.386;16.940;2022-08-03T14:43:18;4.28;;;3.03;;
21890;SDS011;11110;52.386;16.940;2022-08-03T14:45:47;3.90;;;2.97;;
21890;SDS011;11110;52.386;16.940;2022-08-03T14:48:19;3.88;;;2.92;;
21890;SDS011;11110;52.386;16.940;2022-08-03T14:51:08;4.78;;;3.28;;
21890;SDS011;11110;52.386;16.940;2022-08-03T14:53:37;4.10;;;3.70;;
21890;SDS011;11110;52.386;16.940;2022-08-03T14:56:06;3.33;;;3.03;;
21890;SDS011;11110;52.386;16.940;2022-08-03T14:58:36;5.65;;;5.15;;
21890;SDS011;11110;52.386;16.940;2022-08-03T15:01:05;4.60;;;3.55;;
21890;SDS011;11110;52.386;16.940;2022-08-03T15:03:55;3.50;;;2.88;;
21890;SDS011;11110;52.386;16.940;2022-08-03T15:06:23;3.67;;;3.38;;
21890;SDS011;11110;52.386;16.940;2022-08-03T15:08:52;3.03;;;2.83;;
21890;SDS011;11110;52.386;16.940;2022-08-03T15:11:41;3.28;;;2.65;;
21890;SDS011;11110;52.386;16.940;2022-08-03T15:14:09;3.80;;;3.40;;